Hovedside
METAR-TAF:

METAR-TAF

Lufthavner :

Luleå lufthavn

Luleå, Sverige

breddegrad: 65-33N, lengdegrad: 022-08E, høyde over havet: 17 m

Gjeldene værobservasjon

Denne rapporten ble laget for 21 minutter siden, klokken 18:20 UTC
Vind 4 kt fra Sør-sørøst
Temperatur -5°C
Luftfuktighet 86%
Trykk 985 hPa
Sikt 10 km eller mer
ingen skyer under 1500 m og ingen bygeskyer

METAR: ESPA 241820Z 15004KT CAVOK M05/M07 Q0985

Tid: 19:41 (18:41 UTC)

Varsel

Denne rapporten ble laget for 1 time og 11 minutter siden, klokken 17:30 UTC
Varsel gyldig fra 24. klokken 18 UTC til 24. klokken 24 UTC
Vind 5 kt fra Sørvest
Sikt 10 km eller mer
ingen skyer under 1500 m og ingen bygeskyer
Blir
fra 24. klokken 22 UTC til 24. klokken 24 UTC
Vind 10 kt fra Vest-nordvest

TAF: ESPA 241730Z 2418/2424 23005KT CAVOK BECMG 2422/2424 29010KT

Værobservasjoner og værvarsel for over 4000 flyplasser (METAR- og TAF-rapporter).

Tilgjengelige stasjoner er representert av de røde og gule prikkene på kartet.

Hold musepekeren over prikken for å se navnet på stasjonen.

Klikk så for å se værobservasjoner og -varsler.

For å forandre kartet kan du klikke på den grønne knappen med svart kryss for å zoome inn, på den grønne knappen med strek for å zoome ut, eller på de grønne pilene for å se tilstøtende kart.


METAR-TAF: